Time;durP1;ratioP1;P1;durP2;ratioP2;P2;SDS_P1;SDS_P2;PMS_P1;PMS_P2;Temp;Humidity;BMP_temperature;BMP_pressure;BME280_temperature;BME280_humidity;BME280_pressure;Samples;Min_cycle;Max_cycle;Signal;HPM_P1;HPM_P2
2021/09/06 00:00:17;;;;;;;4.35;2.42;;;;;;;;;;5106017;28;20045;-66
2021/09/06 00:02:43;;;;;;;2.38;2.20;;;;;;;;;;5105872;28;20104;-62
2021/09/06 00:05:10;;;;;;;2.95;2.45;;;;;;;;;;5105712;28;20089;-62
2021/09/06 00:07:36;;;;;;;3.17;2.63;;;;;;;;;;5105780;28;20019;-62
2021/09/06 00:10:22;;;;;;;3.72;2.83;;;;;;;;;;5105716;28;20499;-66
2021/09/06 00:12:47;;;;;;;2.72;2.22;;;;;;;;;;5088055;28;20040;-66
2021/09/06 00:15:13;;;;;;;2.47;2.22;;;;;;;;;;5105995;28;20034;-62
2021/09/06 00:17:38;;;;;;;2.65;2.42;;;;;;;;;;5106007;28;20032;-62
2021/09/06 00:20:05;;;;;;;2.63;2.40;;;;;;;;;;5105921;28;20039;-62
2021/09/06 00:22:32;;;;;;;2.30;2.10;;;;;;;;;;5105873;28;20071;-65
2021/09/06 00:24:58;;;;;;;2.58;2.38;;;;;;;;;;5105912;28;20046;-62
2021/09/06 00:27:23;;;;;;;2.50;2.30;;;;;;;;;;5105452;28;20035;-62
2021/09/06 00:29:51;;;;;;;2.60;2.40;;;;;;;;;;5105653;28;20029;-62
2021/09/06 00:32:16;;;;;;;2.65;2.30;;;;;;;;;;5086906;28;20063;-65
2021/09/06 00:34:42;;;;;;;4.82;2.25;;;;;;;;;;5104805;28;20024;-62
2021/09/06 00:37:07;;;;;;;2.42;2.22;;;;;;;;;;5105580;28;20063;-62
2021/09/06 00:39:33;;;;;;;2.75;2.42;;;;;;;;;;5087209;28;20418;-62
2021/09/06 00:41:59;;;;;;;2.42;2.22;;;;;;;;;;5105625;28;20032;-62
2021/09/06 00:44:24;;;;;;;2.80;2.53;;;;;;;;;;5105505;28;20047;-62
2021/09/06 00:46:51;;;;;;;2.30;2.10;;;;;;;;;;5105413;28;20509;-62
2021/09/06 00:49:18;;;;;;;3.88;2.40;;;;;;;;;;5088375;28;20110;-66
2021/09/06 00:51:45;;;;;;;3.50;2.55;;;;;;;;;;5109134;28;20040;-66
2021/09/06 00:54:11;;;;;;;2.67;2.47;;;;;;;;;;5109289;28;20031;-66
2021/09/06 00:56:37;;;;;;;2.28;2.08;;;;;;;;;;5090458;28;20033;-64
2021/09/06 00:59:03;;;;;;;2.42;2.22;;;;;;;;;;5109082;28;20016;-62
2021/09/06 01:01:30;;;;;;;2.25;2.00;;;;;;;;;;5109029;28;20077;-62
2021/09/06 01:03:56;;;;;;;2.40;2.20;;;;;;;;;;5109075;28;20100;-62
2021/09/06 01:06:43;;;;;;;2.35;2.10;;;;;;;;;;5090459;28;20047;-65
2021/09/06 01:09:35;;;;;;;3.00;2.10;;;;;;;;;;5108840;28;20038;-63
2021/09/06 01:12:19;;;;;;;2.88;2.15;;;;;;;;;;5076038;28;20043;-62
2021/09/06 01:14:46;;;;;;;2.15;1.88;;;;;;;;;;5090293;28;20028;-65
2021/09/06 01:17:12;;;;;;;3.20;1.88;;;;;;;;;;5090222;28;20028;-64
2021/09/06 01:19:40;;;;;;;2.30;2.05;;;;;;;;;;5090468;28;20443;-65
2021/09/06 01:22:07;;;;;;;4.18;2.05;;;;;;;;;;5089408;28;20044;-62
2021/09/06 01:24:42;;;;;;;2.22;2.03;;;;;;;;;;5089884;28;20031;-62
2021/09/06 01:27:14;;;;;;;2.00;1.88;;;;;;;;;;5073756;28;20054;-61
2021/09/06 01:29:40;;;;;;;2.47;2.28;;;;;;;;;;5089710;28;20084;-65
2021/09/06 01:32:06;;;;;;;2.38;2.00;;;;;;;;;;5089990;28;20058;-65
2021/09/06 01:34:33;;;;;;;5.45;2.05;;;;;;;;;;5090281;28;20031;-62
2021/09/06 01:37:00;;;;;;;2.17;2.00;;;;;;;;;;5089470;28;20038;-66
2021/09/06 01:39:26;;;;;;;2.13;1.90;;;;;;;;;;5089832;28;20370;-65
2021/09/06 01:41:51;;;;;;;2.25;1.83;;;;;;;;;;5089812;28;20030;-62
2021/09/06 01:44:17;;;;;;;2.35;2.05;;;;;;;;;;5089753;28;20031;-62
2021/09/06 01:46:42;;;;;;;2.17;1.98;;;;;;;;;;5089493;28;20447;-66
2021/09/06 01:49:08;;;;;;;2.10;1.90;;;;;;;;;;5108281;28;20066;-66
2021/09/06 01:51:35;;;;;;;2.22;2.03;;;;;;;;;;5089589;28;20485;-62
2021/09/06 01:54:00;;;;;;;1.80;1.70;;;;;;;;;;5108042;28;20062;-62
2021/09/06 01:56:26;;;;;;;2.03;1.85;;;;;;;;;;5089693;28;20033;-61
2021/09/06 01:58:53;;;;;;;2.58;2.20;;;;;;;;;;5089749;28;20031;-66
2021/09/06 02:01:18;;;;;;;3.90;2.15;;;;;;;;;;5071689;28;20020;-61
2021/09/06 02:03:44;;;;;;;2.13;1.92;;;;;;;;;;5089643;28;20126;-62
2021/09/06 02:06:12;;;;;;;3.75;2.05;;;;;;;;;;5089276;28;20088;-66
2021/09/06 02:08:59;;;;;;;2.10;1.85;;;;;;;;;;5089175;28;20031;-66
2021/09/06 02:11:27;;;;;;;2.05;1.90;;;;;;;;;;5089175;28;20070;-66
2021/09/06 02:13:54;;;;;;;2.38;2.00;;;;;;;;;;5089279;28;20035;-66
2021/09/06 02:16:20;;;;;;;2.20;2.00;;;;;;;;;;5088768;28;20023;-66
2021/09/06 02:18:45;;;;;;;2.25;2.05;;;;;;;;;;5107872;28;20016;-62
2021/09/06 02:21:11;;;;;;;3.17;2.20;;;;;;;;;;5089041;28;20531;-66
2021/09/06 02:23:37;;;;;;;2.28;2.03;;;;;;;;;;5088732;28;20126;-62
2021/09/06 02:26:02;;;;;;;2.38;1.90;;;;;;;;;;5089001;28;20533;-65
2021/09/06 02:28:30;;;;;;;2.10;1.90;;;;;;;;;;5088849;28;20472;-63
2021/09/06 02:30:59;;;;;;;2.20;2.00;;;;;;;;;;5088793;28;20111;-67
2021/09/06 02:33:44;;;;;;;3.20;2.10;;;;;;;;;;5106358;28;20042;-66
2021/09/06 02:36:14;;;;;;;2.93;2.10;;;;;;;;;;5088606;28;20036;-66
2021/09/06 02:38:40;;;;;;;2.75;2.35;;;;;;;;;;5088701;28;20023;-67
2021/09/06 02:41:11;;;;;;;2.15;1.92;;;;;;;;;;5088487;28;20030;-62
2021/09/06 02:43:37;;;;;;;2.42;2.20;;;;;;;;;;5088634;28;20401;-66
2021/09/06 02:46:03;;;;;;;2.28;1.88;;;;;;;;;;5107129;28;20099;-62
2021/09/06 02:48:29;;;;;;;1.90;1.80;;;;;;;;;;5088364;28;20490;-62
2021/09/06 02:50:55;;;;;;;2.50;2.30;;;;;;;;;;5088652;28;20015;-65
2021/09/06 02:53:23;;;;;;;2.45;2.25;;;;;;;;;;5088855;28;20397;-66
2021/09/06 02:55:49;;;;;;;2.33;2.13;;;;;;;;;;5107020;28;20024;-65
2021/09/06 02:58:14;;;;;;;2.78;2.17;;;;;;;;;;5087961;28;20035;-62
2021/09/06 03:00:42;;;;;;;2.65;2.40;;;;;;;;;;5087918;28;20023;-61
2021/09/06 03:03:07;;;;;;;4.72;2.67;;;;;;;;;;5088242;28;20042;-66
2021/09/06 03:05:33;;;;;;;3.10;2.65;;;;;;;;;;5106668;28;20366;-66
2021/09/06 03:07:59;;;;;;;2.92;2.72;;;;;;;;;;5087931;28;20043;-66
2021/09/06 03:10:25;;;;;;;3.63;3.10;;;;;;;;;;5088320;28;20020;-66
2021/09/06 03:12:51;;;;;;;4.95;3.42;;;;;;;;;;5087481;28;20034;-62
2021/09/06 03:15:17;;;;;;;4.53;3.60;;;;;;;;;;5106231;28;20532;-62
2021/09/06 03:17:43;;;;;;;3.90;3.25;;;;;;;;;;5087985;28;20393;-66
2021/09/06 03:20:18;;;;;;;3.92;3.60;;;;;;;;;;5087694;28;20378;-61
2021/09/06 03:22:44;;;;;;;4.35;2.97;;;;;;;;;;5105685;28;20045;-62
2021/09/06 03:25:10;;;;;;;5.35;3.50;;;;;;;;;;5087639;28;20042;-68
2021/09/06 03:27:35;;;;;;;4.80;3.22;;;;;;;;;;5105992;28;20040;-62
2021/09/06 03:30:03;;;;;;;2.92;2.72;;;;;;;;;;5106254;28;20431;-62
2021/09/06 03:32:34;;;;;;;2.80;2.22;;;;;;;;;;5095941;28;20037;-67
2021/09/06 03:35:00;;;;;;;2.90;2.67;;;;;;;;;;5114192;28;20062;-67
2021/09/06 03:37:26;;;;;;;5.30;2.45;;;;;;;;;;5095848;28;20027;-62
2021/09/06 03:39:52;;;;;;;1.95;1.83;;;;;;;;;;5096071;28;20027;-62
2021/09/06 03:42:19;;;;;;;2.03;1.85;;;;;;;;;;5095858;28;20051;-62
2021/09/06 03:44:45;;;;;;;5.63;2.42;;;;;;;;;;5095416;28;20054;-62
2021/09/06 03:47:11;;;;;;;2.50;2.30;;;;;;;;;;5095415;28;20088;-61
2021/09/06 03:49:36;;;;;;;2.40;2.20;;;;;;;;;;5095473;28;20492;-62
2021/09/06 03:52:05;;;;;;;3.53;2.40;;;;;;;;;;5114052;28;20024;-62
2021/09/06 03:54:31;;;;;;;2.45;2.25;;;;;;;;;;5095269;28;20156;-63
2021/09/06 03:56:57;;;;;;;2.60;2.40;;;;;;;;;;5095539;28;20481;-62
2021/09/06 03:59:22;;;;;;;2.20;2.03;;;;;;;;;;5095331;28;20020;-62
2021/09/06 04:01:51;;;;;;;4.15;2.20;;;;;;;;;;5095264;28;20038;-62
2021/09/06 04:04:19;;;;;;;3.55;2.30;;;;;;;;;;5095113;28;20023;-61
2021/09/06 04:06:48;;;;;;;3.28;2.20;;;;;;;;;;5095284;28;20031;-62
2021/09/06 04:09:16;;;;;;;4.55;2.50;;;;;;;;;;5095220;28;20018;-65
2021/09/06 04:11:42;;;;;;;2.55;2.33;;;;;;;;;;5094858;28;20019;-64
2021/09/06 04:14:12;;;;;;;2.97;2.28;;;;;;;;;;5095337;28;20469;-64
2021/09/06 04:16:38;;;;;;;2.53;2.30;;;;;;;;;;5113906;28;20028;-64
2021/09/06 04:19:04;;;;;;;2.85;2.63;;;;;;;;;;5095086;28;20085;-64
2021/09/06 04:21:30;;;;;;;2.25;2.08;;;;;;;;;;5094912;28;20030;-64
2021/09/06 04:23:55;;;;;;;4.05;2.38;;;;;;;;;;5114774;28;20366;-64
2021/09/06 04:26:21;;;;;;;2.78;2.47;;;;;;;;;;5099310;28;20023;-66
2021/09/06 04:28:50;;;;;;;2.20;2.08;;;;;;;;;;5099038;28;20028;-65
2021/09/06 04:31:16;;;;;;;2.75;2.22;;;;;;;;;;5117440;28;20027;-65
2021/09/06 04:33:41;;;;;;;2.60;2.22;;;;;;;;;;5098914;28;20076;-64
2021/09/06 04:36:07;;;;;;;2.60;2.40;;;;;;;;;;5098834;28;20027;-64
2021/09/06 04:38:41;;;;;;;2.42;2.22;;;;;;;;;;5098904;28;20019;-64
2021/09/06 04:41:06;;;;;;;2.58;2.38;;;;;;;;;;5098717;28;20076;-65
2021/09/06 04:43:35;;;;;;;3.75;2.45;;;;;;;;;;5098751;28;20030;-66
2021/09/06 04:46:04;;;;;;;2.92;2.67;;;;;;;;;;5098698;28;20041;-66
2021/09/06 04:48:29;;;;;;;2.50;2.30;;;;;;;;;;5098521;28;20008;-66
2021/09/06 04:50:55;;;;;;;2.47;2.25;;;;;;;;;;5117029;28;20028;-66
2021/09/06 04:53:24;;;;;;;2.58;2.17;;;;;;;;;;5098667;28;20023;-65
2021/09/06 04:55:50;;;;;;;2.60;2.40;;;;;;;;;;5098487;28;20027;-65
2021/09/06 04:58:16;;;;;;;2.35;2.15;;;;;;;;;;5098437;28;20415;-65
2021/09/06 05:00:42;;;;;;;2.78;2.20;;;;;;;;;;5098348;28;20028;-66
2021/09/06 05:03:07;;;;;;;3.10;2.40;;;;;;;;;;5116607;28;20019;-66
2021/09/06 05:05:32;;;;;;;3.22;2.63;;;;;;;;;;5097770;28;20035;-66
2021/09/06 05:07:58;;;;;;;2.17;1.98;;;;;;;;;;5098202;28;20027;-66
2021/09/06 05:10:25;;;;;;;4.63;2.45;;;;;;;;;;5098295;28;20389;-66
2021/09/06 05:12:50;;;;;;;3.45;2.22;;;;;;;;;;5098214;28;20016;-66
2021/09/06 05:15:18;;;;;;;3.92;2.40;;;;;;;;;;5098041;28;20020;-66
2021/09/06 05:17:46;;;;;;;2.60;2.28;;;;;;;;;;5097980;28;20019;-66
2021/09/06 05:20:13;;;;;;;6.30;2.47;;;;;;;;;;5098073;28;20061;-66
2021/09/06 05:22:38;;;;;;;2.65;2.40;;;;;;;;;;5097362;28;20070;-66
2021/09/06 05:25:08;;;;;;;3.10;2.30;;;;;;;;;;5097845;28;20385;-66
2021/09/06 05:27:34;;;;;;;2.63;2.08;;;;;;;;;;5097890;28;20482;-66
2021/09/06 05:29:59;;;;;;;3.90;2.67;;;;;;;;;;5116128;28;20035;-66
2021/09/06 05:32:25;;;;;;;2.83;2.30;;;;;;;;;;5097773;28;20028;-66
2021/09/06 05:34:51;;;;;;;2.67;2.47;;;;;;;;;;5097874;28;20040;-66
2021/09/06 05:37:16;;;;;;;3.10;2.13;;;;;;;;;;5097800;28;20027;-66
2021/09/06 05:39:42;;;;;;;4.47;2.72;;;;;;;;;;5097771;28;20111;-66
2021/09/06 05:42:09;;;;;;;3.17;2.35;;;;;;;;;;5097656;28;20462;-66
2021/09/06 05:44:34;;;;;;;5.22;2.40;;;;;;;;;;5097568;28;20073;-66
2021/09/06 05:47:01;;;;;;;5.20;2.67;;;;;;;;;;5097383;28;20111;-66
2021/09/06 05:49:30;;;;;;;3.60;2.40;;;;;;;;;;5097518;28;20073;-66
2021/09/06 05:51:56;;;;;;;2.58;2.38;;;;;;;;;;5097477;28;20028;-66
2021/09/06 05:54:33;;;;;;;4.65;2.13;;;;;;;;;;5097373;28;20024;-66
2021/09/06 05:56:58;;;;;;;2.42;2.22;;;;;;;;;;5097045;28;20112;-66
2021/09/06 05:59:26;;;;;;;4.43;2.60;;;;;;;;;;5097206;28;20008;-66
2021/09/06 06:01:53;;;;;;;2.88;1.92;;;;;;;;;;5097368;28;20110;-66
2021/09/06 06:04:18;;;;;;;2.67;2.08;;;;;;;;;;5097177;28;20012;-66
2021/09/06 06:06:48;;;;;;;3.85;2.10;;;;;;;;;;5115491;28;20028;-66
2021/09/06 06:09:13;;;;;;;3.08;2.38;;;;;;;;;;5097055;28;20023;-66
2021/09/06 06:11:40;;;;;;;2.42;2.03;;;;;;;;;;5115320;28;20028;-66
2021/09/06 06:14:13;;;;;;;2.13;1.90;;;;;;;;;;5097148;28;20103;-66
2021/09/06 06:16:39;;;;;;;5.82;2.50;;;;;;;;;;5097097;28;20019;-66
2021/09/06 06:19:06;;;;;;;2.53;1.70;;;;;;;;;;5096997;28;20111;-66
2021/09/06 06:21:44;;;;;;;2.00;1.90;;;;;;;;;;5096613;28;20065;-66
2021/09/06 06:24:28;;;;;;;2.70;1.92;;;;;;;;;;5115664;28;20050;-66
2021/09/06 06:27:05;;;;;;;4.85;2.17;;;;;;;;;;5096875;28;20063;-66
2021/09/06 06:29:31;;;;;;;3.05;2.25;;;;;;;;;;5096693;28;20032;-66
2021/09/06 06:31:57;;;;;;;2.22;2.03;;;;;;;;;;5096653;28;20085;-66
2021/09/06 06:34:24;;;;;;;2.55;2.10;;;;;;;;;;5096487;28;20031;-66
2021/09/06 06:36:50;;;;;;;2.80;2.30;;;;;;;;;;5079676;28;20016;-66
2021/09/06 06:39:22;;;;;;;2.20;2.00;;;;;;;;;;5096467;28;20020;-66
2021/09/06 06:41:52;;;;;;;1.83;1.60;;;;;;;;;;5096362;28;20058;-66
2021/09/06 06:44:18;;;;;;;13.93;2.88;;;;;;;;;;5114708;28;20051;-66
2021/09/06 06:46:43;;;;;;;3.10;1.92;;;;;;;;;;5095863;28;20012;-66
2021/09/06 06:49:09;;;;;;;2.20;2.00;;;;;;;;;;5096322;28;20024;-66
2021/09/06 06:51:35;;;;;;;2.13;1.92;;;;;;;;;;5096323;28;20104;-66
2021/09/06 06:54:01;;;;;;;1.73;1.63;;;;;;;;;;5095979;28;20496;-66
2021/09/06 06:56:30;;;;;;;2.38;1.65;;;;;;;;;;5096265;28;20393;-66
2021/09/06 06:59:00;;;;;;;2.25;2.05;;;;;;;;;;5096122;28;20023;-66
2021/09/06 07:01:26;;;;;;;2.60;1.77;;;;;;;;;;5096069;28;20050;-66
2021/09/06 07:03:53;;;;;;;1.60;1.50;;;;;;;;;;5079288;28;20047;-66
2021/09/06 07:06:18;;;;;;;4.07;1.85;;;;;;;;;;5096123;28;20062;-66
2021/09/06 07:08:44;;;;;;;1.88;1.77;;;;;;;;;;5095891;28;20434;-66
2021/09/06 07:11:10;;;;;;;2.10;1.80;;;;;;;;;;5095957;28;20028;-66
2021/09/06 07:13:35;;;;;;;1.55;1.45;;;;;;;;;;5095919;28;20024;-66
2021/09/06 07:16:03;;;;;;;2.17;1.77;;;;;;;;;;5095980;28;20027;-66
2021/09/06 07:18:28;;;;;;;1.48;1.38;;;;;;;;;;5095897;28;20020;-66
2021/09/06 07:20:54;;;;;;;2.65;1.80;;;;;;;;;;5095928;28;20050;-66
2021/09/06 07:23:20;;;;;;;2.10;1.90;;;;;;;;;;5095499;28;20047;-66
2021/09/06 07:25:45;;;;;;;1.63;1.50;;;;;;;;;;5095659;28;20050;-66
2021/09/06 07:28:12;;;;;;;2.08;1.88;;;;;;;;;;5095592;28;20025;-66
2021/09/06 07:30:38;;;;;;;2.67;1.67;;;;;;;;;;5113915;28;20023;-66
2021/09/06 07:33:06;;;;;;;2.10;1.70;;;;;;;;;;5095639;28;20668;-66
2021/09/06 07:35:33;;;;;;;2.55;1.48;;;;;;;;;;5095583;28;20455;-66
2021/09/06 07:37:58;;;;;;;2.85;1.45;;;;;;;;;;5095588;28;20023;-66
2021/09/06 07:40:27;;;;;;;2.60;1.60;;;;;;;;;;5095637;28;20031;-65
2021/09/06 07:42:52;;;;;;;2.67;1.30;;;;;;;;;;5095458;28;20027;-65
2021/09/06 07:45:18;;;;;;;1.55;1.45;;;;;;;;;;5095428;28;20032;-65
2021/09/06 07:47:44;;;;;;;1.45;1.33;;;;;;;;;;5113759;28;20040;-65
2021/09/06 07:50:10;;;;;;;1.30;1.20;;;;;;;;;;5095377;28;20031;-66
2021/09/06 07:52:37;;;;;;;1.30;1.20;;;;;;;;;;5095539;28;20007;-66
2021/09/06 07:55:04;;;;;;;1.42;1.20;;;;;;;;;;5095352;28;20114;-66
2021/09/06 07:57:30;;;;;;;2.38;1.38;;;;;;;;;;5095313;28;20085;-66
2021/09/06 07:59:56;;;;;;;1.05;1.05;;;;;;;;;;5098263;28;20415;-65
2021/09/06 08:02:23;;;;;;;1.50;1.20;;;;;;;;;;5099530;28;20047;-66
2021/09/06 08:04:51;;;;;;;1.33;1.23;;;;;;;;;;5099669;28;20436;-66
2021/09/06 08:07:16;;;;;;;1.50;1.40;;;;;;;;;;5099451;28;20023;-63
2021/09/06 08:09:42;;;;;;;2.38;1.65;;;;;;;;;;5099425;28;20024;-63
2021/09/06 08:12:08;;;;;;;1.63;1.48;;;;;;;;;;5117568;28;20016;-63
2021/09/06 08:14:34;;;;;;;3.33;1.63;;;;;;;;;;5099341;28;20030;-62
2021/09/06 08:17:00;;;;;;;1.63;1.20;;;;;;;;;;5099372;28;20015;-62
2021/09/06 08:19:28;;;;;;;1.73;1.40;;;;;;;;;;5099130;28;20031;-62
2021/09/06 08:21:56;;;;;;;1.33;1.23;;;;;;;;;;5098755;28;20124;-65
2021/09/06 08:24:23;;;;;;;2.80;1.25;;;;;;;;;;5099276;28;20405;-65
2021/09/06 08:26:50;;;;;;;6.20;1.60;;;;;;;;;;5099086;28;20489;-65
2021/09/06 08:29:15;;;;;;;1.10;1.00;;;;;;;;;;5098956;28;20032;-65
2021/09/06 08:31:41;;;;;;;2.53;1.70;;;;;;;;;;5098933;28;20015;-65
2021/09/06 08:34:06;;;;;;;2.40;1.30;;;;;;;;;;5098945;28;20039;-65
2021/09/06 08:36:36;;;;;;;3.70;1.30;;;;;;;;;;5098858;28;20077;-65
2021/09/06 08:39:02;;;;;;;2.10;1.30;;;;;;;;;;5098965;28;20035;-65
2021/09/06 08:41:27;;;;;;;1.20;1.10;;;;;;;;;;5098532;28;20019;-65
2021/09/06 08:43:54;;;;;;;2.28;1.30;;;;;;;;;;5099086;28;20119;-65
2021/09/06 08:46:23;;;;;;;2.47;1.23;;;;;;;;;;5098678;28;20465;-65
2021/09/06 08:48:48;;;;;;;1.80;1.40;;;;;;;;;;5098495;28;20020;-66
2021/09/06 08:51:15;;;;;;;2.60;1.52;;;;;;;;;;5098565;28;20026;-65
2021/09/06 08:53:41;;;;;;;2.00;1.42;;;;;;;;;;5098594;28;20023;-65
2021/09/06 08:56:06;;;;;;;2.05;1.10;;;;;;;;;;5116782;28;20028;-65
2021/09/06 08:58:34;;;;;;;1.83;1.20;;;;;;;;;;5098540;28;20111;-65
2021/09/06 09:01:00;;;;;;;1.33;1.20;;;;;;;;;;5098480;28;20043;-65
2021/09/06 09:03:48;;;;;;;1.30;1.20;;;;;;;;;;5098568;28;20122;-65
2021/09/06 09:06:40;;;;;;;1.73;1.38;;;;;;;;;;5084898;28;20035;-65
2021/09/06 09:09:27;;;;;;;1.30;1.20;;;;;;;;;;5097947;28;20398;-65
2021/09/06 09:12:12;;;;;;;1.58;1.48;;;;;;;;;;5098276;28;20024;-65
2021/09/06 09:14:56;;;;;;;1.58;1.48;;;;;;;;;;5098303;28;20023;-65
2021/09/06 09:17:36;;;;;;;1.00;1.00;;;;;;;;;;5098100;28;20032;-65
2021/09/06 09:20:16;;;;;;;2.07;1.40;;;;;;;;;;5098260;28;20451;-65
2021/09/06 09:23:11;;;;;;;1.75;1.00;;;;;;;;;;5097796;28;20353;-64
2021/09/06 09:25:47;;;;;;;2.70;1.23;;;;;;;;;;5097992;28;20031;-64
2021/09/06 09:28:45;;;;;;;1.05;1.00;;;;;;;;;;5111683;28;20044;-65
2021/09/06 09:31:31;;;;;;;1.25;1.15;;;;;;;;;;5115905;28;20114;-64
2021/09/06 09:34:14;;;;;;;1.38;1.27;;;;;;;;;;5097920;28;20469;-65
2021/09/06 09:36:57;;;;;;;3.05;1.10;;;;;;;;;;5097851;28;20139;-65
2021/09/06 09:39:24;;;;;;;1.20;1.10;;;;;;;;;;5115991;28;20031;-67
2021/09/06 09:42:01;;;;;;;1.30;1.20;;;;;;;;;;5115915;28;20023;-66
2021/09/06 09:44:29;;;;;;;1.52;1.42;;;;;;;;;;5115980;28;20023;-67
2021/09/06 09:47:14;;;;;;;1.20;1.10;;;;;;;;;;5116228;28;20099;-67
2021/09/06 09:49:43;;;;;;;1.55;0.98;;;;;;;;;;5115897;28;20016;-67
2021/09/06 09:52:09;;;;;;;3.97;1.10;;;;;;;;;;5115700;28;20008;-67
2021/09/06 09:54:36;;;;;;;2.40;1.13;;;;;;;;;;5115640;28;20081;-67
2021/09/06 09:57:02;;;;;;;1.35;1.27;;;;;;;;;;5115686;28;20016;-68
2021/09/06 09:59:29;;;;;;;2.03;1.10;;;;;;;;;;5115599;28;20076;-67
2021/09/06 10:01:58;;;;;;;1.20;1.10;;;;;;;;;;5115484;28;20015;-68
2021/09/06 10:04:25;;;;;;;2.03;1.40;;;;;;;;;;5115455;28;20064;-67
2021/09/06 10:06:52;;;;;;;1.77;1.63;;;;;;;;;;5115539;28;20040;-67
2021/09/06 10:09:18;;;;;;;1.45;1.30;;;;;;;;;;5115375;28;20035;-64
2021/09/06 10:11:44;;;;;;;1.70;1.35;;;;;;;;;;5115349;28;20020;-64
2021/09/06 10:14:14;;;;;;;1.58;1.40;;;;;;;;;;5115417;28;20428;-65
2021/09/06 10:16:41;;;;;;;2.17;1.23;;;;;;;;;;5115267;28;20077;-64
2021/09/06 10:19:09;;;;;;;1.63;1.35;;;;;;;;;;5115195;28;20024;-64
2021/09/06 10:21:44;;;;;;;2.58;1.60;;;;;;;;;;5113989;28;20039;-65
2021/09/06 10:24:18;;;;;;;2.17;1.92;;;;;;;;;;5096912;28;20390;-64
2021/09/06 10:26:44;;;;;;;3.25;1.48;;;;;;;;;;5115104;28;20046;-65
2021/09/06 10:29:21;;;;;;;4.13;1.90;;;;;;;;;;5114922;28;20027;-65
2021/09/06 10:32:03;;;;;;;3.00;1.67;;;;;;;;;;5115038;28;20023;-65
2021/09/06 10:34:29;;;;;;;2.42;1.52;;;;;;;;;;5114606;28;20110;-65
2021/09/06 10:37:03;;;;;;;1.92;1.60;;;;;;;;;;5114927;28;20027;-65
2021/09/06 10:39:31;;;;;;;2.47;1.48;;;;;;;;;;5114779;28;20435;-65
2021/09/06 10:42:05;;;;;;;1.42;1.20;;;;;;;;;;5114763;28;20489;-65
2021/09/06 10:44:36;;;;;;;3.00;1.67;;;;;;;;;;5114856;28;20027;-65
2021/09/06 10:47:06;;;;;;;1.60;1.50;;;;;;;;;;5096388;28;20024;-65
2021/09/06 10:49:32;;;;;;;1.83;1.52;;;;;;;;;;5096419;28;20076;-65
2021/09/06 10:51:59;;;;;;;2.10;1.90;;;;;;;;;;5114548;28;20377;-65
2021/09/06 10:54:25;;;;;;;2.65;1.60;;;;;;;;;;5114562;28;20028;-65
2021/09/06 10:56:52;;;;;;;2.25;1.88;;;;;;;;;;5114570;28;20381;-65
2021/09/06 10:59:24;;;;;;;1.63;1.52;;;;;;;;;;5114458;28;20038;-65
2021/09/06 11:01:53;;;;;;;1.70;1.60;;;;;;;;;;5114476;28;20031;-65
2021/09/06 11:04:23;;;;;;;1.63;1.08;;;;;;;;;;5114435;28;20019;-64
2021/09/06 11:07:00;;;;;;;1.80;1.67;;;;;;;;;;5114351;28;20059;-65
2021/09/06 11:09:29;;;;;;;1.77;1.30;;;;;;;;;;5114152;28;20038;-65
2021/09/06 11:11:59;;;;;;;2.03;1.33;;;;;;;;;;5114117;28;20459;-64
2021/09/06 11:14:33;;;;;;;2.10;1.40;;;;;;;;;;5114144;28;20111;-65
2021/09/06 11:17:00;;;;;;;3.80;1.58;;;;;;;;;;5113986;28;20031;-64
2021/09/06 11:19:27;;;;;;;1.60;1.50;;;;;;;;;;5114124;28;20026;-63
2021/09/06 11:21:58;;;;;;;7.60;6.05;;;;;;;;;;5113781;28;20035;-64
2021/09/06 11:24:26;;;;;;;4.95;2.65;;;;;;;;;;5114238;28;20040;-64
2021/09/06 11:26:52;;;;;;;3.72;1.90;;;;;;;;;;5113910;28;20030;-64
2021/09/06 11:29:18;;;;;;;17.00;10.95;;;;;;;;;;5113275;28;20553;-64
2021/09/06 11:31:48;;;;;;;7.15;6.40;;;;;;;;;;5113878;28;20023;-64
2021/09/06 11:34:14;;;;;;;3.60;2.33;;;;;;;;;;5113874;28;20058;-64
2021/09/06 11:36:39;;;;;;;4.68;2.17;;;;;;;;;;5113752;28;20019;-64
2021/09/06 11:39:08;;;;;;;3.25;1.67;;;;;;;;;;5113800;28;20489;-65
2021/09/06 11:41:37;;;;;;;3.22;1.77;;;;;;;;;;5113786;28;20012;-64
2021/09/06 11:44:04;;;;;;;2.85;1.95;;;;;;;;;;5113723;28;20156;-64
2021/09/06 11:46:30;;;;;;;3.38;2.30;;;;;;;;;;5113790;28;20024;-65
2021/09/06 11:48:59;;;;;;;4.30;1.85;;;;;;;;;;5095277;28;20363;-65
2021/09/06 11:51:25;;;;;;;3.65;2.35;;;;;;;;;;5113587;28;20035;-64
2021/09/06 11:53:55;;;;;;;3.78;2.20;;;;;;;;;;5113535;28;20031;-64
2021/09/06 11:56:20;;;;;;;3.03;1.95;;;;;;;;;;5113701;28;20488;-65
2021/09/06 11:58:46;;;;;;;3.53;2.70;;;;;;;;;;5113625;28;20031;-64
2021/09/06 12:01:15;;;;;;;6.05;4.15;;;;;;;;;;5095531;28;20106;-64
2021/09/06 12:03:41;;;;;;;7.35;4.85;;;;;;;;;;5113590;28;20020;-64
2021/09/06 12:06:09;;;;;;;3.33;2.10;;;;;;;;;;5113570;28;20015;-64
2021/09/06 12:08:35;;;;;;;4.35;2.50;;;;;;;;;;5113562;28;20061;-64
2021/09/06 12:11:08;;;;;;;7.63;4.18;;;;;;;;;;5113530;28;20367;-64
2021/09/06 12:13:35;;;;;;;4.78;2.15;;;;;;;;;;5113469;28;20030;-64
2021/09/06 12:16:05;;;;;;;8.13;3.80;;;;;;;;;;5113361;28;20045;-64
2021/09/06 12:18:34;;;;;;;3.75;3.22;;;;;;;;;;5113291;28;20076;-64
2021/09/06 12:21:02;;;;;;;6.82;5.47;;;;;;;;;;5113416;28;20492;-64
2021/09/06 12:23:34;;;;;;;2.28;2.08;;;;;;;;;;5113180;28;20050;-64
2021/09/06 12:26:00;;;;;;;2.50;2.30;;;;;;;;;;5094834;28;20027;-64
2021/09/06 12:28:26;;;;;;;3.13;2.20;;;;;;;;;;5113266;28;20028;-64
2021/09/06 12:31:00;;;;;;;3.17;1.73;;;;;;;;;;5113293;28;20024;-64
2021/09/06 12:33:25;;;;;;;1.63;1.50;;;;;;;;;;5113281;28;20218;-64
2021/09/06 12:35:51;;;;;;;18.95;3.70;;;;;;;;;;5113346;28;20099;-64
2021/09/06 12:38:16;;;;;;;2.72;1.83;;;;;;;;;;5113258;28;20474;-63
2021/09/06 12:40:42;;;;;;;2.40;1.98;;;;;;;;;;5095077;28;20023;-63
2021/09/06 12:43:07;;;;;;;2.70;2.00;;;;;;;;;;5113109;28;20115;-63
2021/09/06 12:45:32;;;;;;;1.80;1.70;;;;;;;;;;5115255;28;20465;-62
2021/09/06 12:47:58;;;;;;;1.88;1.70;;;;;;;;;;5116910;28;20039;-62
2021/09/06 12:50:24;;;;;;;1.35;1.25;;;;;;;;;;5116935;28;20058;-62
2021/09/06 12:52:49;;;;;;;3.10;2.40;;;;;;;;;;5116882;28;20477;-62
2021/09/06 12:55:15;;;;;;;2.22;2.00;;;;;;;;;;5098537;28;20457;-62
2021/09/06 12:57:40;;;;;;;3.47;2.30;;;;;;;;;;5098461;28;20038;-63
2021/09/06 13:00:06;;;;;;;1.98;1.58;;;;;;;;;;5116933;28;20012;-63
2021/09/06 13:02:32;;;;;;;3.30;2.20;;;;;;;;;;5116860;28;20032;-62
2021/09/06 13:04:57;;;;;;;2.60;2.22;;;;;;;;;;5116709;28;20026;-63
2021/09/06 13:07:23;;;;;;;1.75;1.60;;;;;;;;;;5116527;28;20032;-62
2021/09/06 13:09:48;;;;;;;3.90;2.45;;;;;;;;;;5116569;28;20530;-62
2021/09/06 13:12:14;;;;;;;4.25;2.17;;;;;;;;;;5116663;28;20065;-63
2021/09/06 13:14:39;;;;;;;2.45;2.00;;;;;;;;;;5116541;28;20055;-62
2021/09/06 13:17:04;;;;;;;2.15;1.85;;;;;;;;;;5116514;28;20068;-62
2021/09/06 13:19:30;;;;;;;2.60;1.42;;;;;;;;;;5116519;28;20038;-62
2021/09/06 13:21:55;;;;;;;4.10;3.28;;;;;;;;;;5115840;28;20035;-63
2021/09/06 13:24:21;;;;;;;2.00;1.88;;;;;;;;;;5116514;28;20024;-63
2021/09/06 13:26:46;;;;;;;2.30;1.45;;;;;;;;;;5116393;28;20119;-64
2021/09/06 13:29:12;;;;;;;2.25;2.03;;;;;;;;;;5116203;28;20119;-62
2021/09/06 13:31:37;;;;;;;2.55;2.10;;;;;;;;;;5116033;28;20027;-62
2021/09/06 13:34:03;;;;;;;2.63;1.52;;;;;;;;;;5116160;28;20024;-62
2021/09/06 13:36:29;;;;;;;1.83;1.60;;;;;;;;;;5116090;28;20051;-62
2021/09/06 13:38:57;;;;;;;11.57;2.67;;;;;;;;;;5116089;28;20031;-62
2021/09/06 13:41:23;;;;;;;2.30;1.50;;;;;;;;;;5115861;28;20036;-62
2021/09/06 13:43:48;;;;;;;3.40;1.98;;;;;;;;;;5115872;28;20016;-62
2021/09/06 13:46:14;;;;;;;1.55;1.38;;;;;;;;;;5115849;28;20493;-62
2021/09/06 13:48:39;;;;;;;6.03;1.88;;;;;;;;;;5115673;28;20028;-62
2021/09/06 13:51:05;;;;;;;1.55;1.45;;;;;;;;;;5115795;28;20023;-62
2021/09/06 13:53:30;;;;;;;1.83;1.50;;;;;;;;;;5115758;28;20096;-62
2021/09/06 13:55:56;;;;;;;3.22;1.98;;;;;;;;;;5114947;28;20124;-62
2021/09/06 13:58:21;;;;;;;3.05;1.80;;;;;;;;;;5115252;28;20069;-62
2021/09/06 14:00:47;;;;;;;3.20;1.98;;;;;;;;;;5115436;28;20115;-62
2021/09/06 14:03:12;;;;;;;1.60;1.50;;;;;;;;;;5115617;28;20029;-62
2021/09/06 14:05:38;;;;;;;2.92;1.92;;;;;;;;;;5115512;28;20055;-61
2021/09/06 14:08:04;;;;;;;21.17;11.38;;;;;;;;;;5115244;28;20381;-62
2021/09/06 14:10:29;;;;;;;7.68;4.00;;;;;;;;;;5115415;28;20015;-62
2021/09/06 14:12:55;;;;;;;3.13;1.88;;;;;;;;;;5097117;28;20069;-62
2021/09/06 14:15:20;;;;;;;5.05;3.35;;;;;;;;;;5115282;28;20023;-62
2021/09/06 14:17:46;;;;;;;6.55;2.72;;;;;;;;;;5115526;28;20016;-62
2021/09/06 14:20:12;;;;;;;3.33;2.47;;;;;;;;;;5115043;28;20039;-62
2021/09/06 14:22:37;;;;;;;4.10;1.67;;;;;;;;;;5114549;28;20039;-62
2021/09/06 14:25:05;;;;;;;4.20;2.05;;;;;;;;;;5115170;28;20027;-62
2021/09/06 14:27:30;;;;;;;4.93;1.67;;;;;;;;;;5115117;28;20575;-62
2021/09/06 14:29:56;;;;;;;2.22;2.03;;;;;;;;;;5115088;28;20031;-62
2021/09/06 14:32:21;;;;;;;3.35;2.25;;;;;;;;;;5114940;28;20408;-62
2021/09/06 14:34:47;;;;;;;2.88;1.75;;;;;;;;;;5114625;28;20074;-62
2021/09/06 14:37:13;;;;;;;6.60;2.13;;;;;;;;;;5115033;28;20020;-62
2021/09/06 14:39:39;;;;;;;4.07;2.38;;;;;;;;;;5115238;28;20028;-62
2021/09/06 14:42:04;;;;;;;4.10;2.35;;;;;;;;;;5114975;28;20023;-62
2021/09/06 14:44:30;;;;;;;3.58;2.63;;;;;;;;;;5115062;28;20027;-62
2021/09/06 14:46:56;;;;;;;2.17;1.98;;;;;;;;;;5114952;28;20016;-66